Time;durP1;ratioP1;P1;durP2;ratioP2;P2;SDS_P1;SDS_P2;PMS_P1;PMS_P2;Temp;Humidity;BMP_temperature;BMP_pressure;BME280_temperature;BME280_humidity;BME280_pressure;Samples;Min_cycle;Max_cycle;Signal;HPM_P1;HPM_P2
2022/04/05 00:01:52;;;;;;;10.77;8.20;;;6.30;99.90;;;;;;5110392;28;20439;-80
2022/04/05 00:04:37;;;;;;;7.07;6.30;;;6.30;99.90;;;;;;5110751;28;20470;-80
2022/04/05 00:07:22;;;;;;;8.20;7.40;;;6.20;99.90;;;;;;5094643;28;20392;-80
2022/04/05 00:10:09;;;;;;;5.97;5.47;;;6.30;99.90;;;;;;5116930;28;20468;-80
2022/04/05 00:12:58;;;;;;;6.70;6.00;;;6.30;99.90;;;;;;5088063;28;20411;-80
2022/04/05 00:15:42;;;;;;;14.73;7.40;;;6.30;99.90;;;;;;5101417;28;20453;-79
2022/04/05 00:18:27;;;;;;;11.37;6.90;;;6.30;99.90;;;;;;5132166;28;20432;-78
2022/04/05 00:21:12;;;;;;;7.33;5.80;;;6.40;99.90;;;;;;5123120;28;20452;-79
2022/04/05 00:23:57;;;;;;;7.17;6.47;;;6.30;99.90;;;;;;5120601;28;20384;-77
2022/04/05 00:26:41;;;;;;;7.80;6.97;;;6.40;99.90;;;;;;5105951;28;20441;-79
2022/04/05 00:29:26;;;;;;;8.50;6.93;;;6.30;99.90;;;;;;5135134;28;20426;-80
2022/04/05 00:32:12;;;;;;;7.40;6.63;;;6.40;99.90;;;;;;5135099;28;20355;-78
2022/04/05 00:34:58;;;;;;;6.60;6.10;;;6.30;99.90;;;;;;5134949;28;20470;-78
2022/04/05 00:37:45;;;;;;;7.43;6.60;;;6.30;99.90;;;;;;5135384;28;20398;-78
2022/04/05 00:40:30;;;;;;;6.77;6.07;;;6.40;99.90;;;;;;5103125;28;20387;-83
2022/04/05 00:43:14;;;;;;;9.40;6.50;;;6.20;99.90;;;;;;5102141;28;20480;-81
2022/04/05 00:45:59;;;;;;;6.57;5.90;;;6.50;99.90;;;;;;5102588;28;20442;-82
2022/04/05 00:48:55;;;;;;;7.47;6.00;;;6.50;99.90;;;;;;5118640;28;20428;-81
2022/04/05 00:51:43;;;;;;;10.97;6.50;;;6.60;99.90;;;;;;5118083;28;20551;-82
2022/04/05 00:54:30;;;;;;;6.33;5.73;;;6.60;99.90;;;;;;5102487;28;20724;-82
2022/04/05 00:57:18;;;;;;;6.90;6.37;;;6.50;99.90;;;;;;5102634;28;20417;-81
2022/04/05 01:00:07;;;;;;;7.00;5.80;;;6.50;99.90;;;;;;5102647;28;20406;-81
2022/04/05 01:02:54;;;;;;;7.00;5.17;;;6.40;99.90;;;;;;5082756;28;20946;-83
2022/04/05 01:05:40;;;;;;;5.20;4.80;;;6.50;99.90;;;;;;5082275;28;20547;-83
2022/04/05 01:08:27;;;;;;;12.80;6.53;;;6.50;99.90;;;;;;5097879;28;20400;-83
2022/04/05 01:11:11;;;;;;;7.33;6.57;;;6.40;99.90;;;;;;5112795;28;20492;-83
2022/04/05 01:13:58;;;;;;;7.63;6.97;;;6.30;99.90;;;;;;5120642;28;20373;-83
2022/04/05 01:16:44;;;;;;;6.40;5.70;;;6.30;99.90;;;;;;5124193;28;20391;-83
2022/04/05 01:19:29;;;;;;;7.37;6.60;;;6.20;99.90;;;;;;5125743;28;20409;-82
2022/04/05 01:22:14;;;;;;;7.67;5.93;;;6.40;99.90;;;;;;5126768;28;20383;-82
2022/04/05 01:24:59;;;;;;;6.23;5.40;;;6.40;99.90;;;;;;5121687;28;20894;-82
2022/04/05 01:27:44;;;;;;;10.63;7.10;;;6.30;99.90;;;;;;5121438;28;20372;-80
2022/04/05 01:30:31;;;;;;;10.40;5.90;;;6.30;99.90;;;;;;5121405;28;20387;-82
2022/04/05 01:33:16;;;;;;;7.00;6.30;;;6.10;99.90;;;;;;5120970;28;20392;-82
2022/04/05 01:36:00;;;;;;;5.80;5.30;;;6.10;99.90;;;;;;5121152;28;20390;-77
2022/04/05 01:38:45;;;;;;;7.03;6.43;;;6.10;99.90;;;;;;5122753;28;20836;-83
2022/04/05 01:41:29;;;;;;;7.10;6.40;;;6.10;99.90;;;;;;5120708;28;20744;-81
2022/04/05 01:44:16;;;;;;;7.93;6.50;;;6.10;99.90;;;;;;5105354;28;20386;-82
2022/04/05 01:47:13;;;;;;;6.57;5.87;;;6.20;99.90;;;;;;5120965;28;20537;-82
2022/04/05 01:49:58;;;;;;;9.80;7.50;;;6.20;99.90;;;;;;5121998;28;20350;-81
2022/04/05 01:52:45;;;;;;;7.77;6.97;;;5.90;99.90;;;;;;5121344;28;20405;-81
2022/04/05 01:55:30;;;;;;;14.43;6.30;;;5.80;99.90;;;;;;5122763;28;20427;-82
2022/04/05 01:58:14;;;;;;;6.90;6.30;;;5.90;99.90;;;;;;5138097;28;20409;-79
2022/04/05 02:01:01;;;;;;;9.67;6.80;;;5.70;99.90;;;;;;5117737;28;20721;-82
2022/04/05 02:03:47;;;;;;;12.20;7.90;;;5.80;99.90;;;;;;5086547;28;20387;-82
2022/04/05 02:06:32;;;;;;;7.50;6.27;;;5.90;99.90;;;;;;5102110;28;20477;-82
2022/04/05 02:09:17;;;;;;;8.00;7.20;;;5.90;99.90;;;;;;5098477;28;20445;-80
2022/04/05 02:12:03;;;;;;;8.63;7.77;;;6.00;99.90;;;;;;5075516;28;20450;-78
2022/04/05 02:14:50;;;;;;;10.37;6.97;;;6.00;99.90;;;;;;5074793;28;20398;-78
2022/04/05 02:17:34;;;;;;;7.53;6.73;;;5.80;99.90;;;;;;5076039;28;20396;-80
2022/04/05 02:20:20;;;;;;;8.00;6.70;;;5.50;99.90;;;;;;5077054;28;20402;-79
2022/04/05 02:23:05;;;;;;;7.10;5.73;;;5.70;99.90;;;;;;5075936;28;20382;-79
2022/04/05 02:25:52;;;;;;;7.33;6.73;;;5.80;99.90;;;;;;5075471;28;20493;-79
2022/04/05 02:28:37;;;;;;;7.30;5.90;;;5.60;99.90;;;;;;5076827;28;20447;-78
2022/04/05 02:31:22;;;;;;;7.80;6.03;;;5.70;99.90;;;;;;5075187;28;20402;-82
2022/04/05 02:34:08;;;;;;;10.33;6.10;;;5.70;99.90;;;;;;5075002;28;20428;-79
2022/04/05 02:36:56;;;;;;;8.83;6.20;;;5.70;99.90;;;;;;5074834;28;20423;-79
2022/04/05 02:39:40;;;;;;;7.97;7.07;;;5.80;99.90;;;;;;5075075;28;20406;-79
2022/04/05 02:42:24;;;;;;;9.30;5.93;;;5.90;99.90;;;;;;5074065;28;20402;-79
2022/04/05 02:45:12;;;;;;;6.83;6.23;;;5.90;99.90;;;;;;5073771;28;20425;-79
2022/04/05 02:47:57;;;;;;;8.83;8.00;;;6.00;99.90;;;;;;5071144;28;20394;-79
2022/04/05 02:50:42;;;;;;;6.90;5.60;;;6.00;99.90;;;;;;5072421;28;20390;-81
2022/04/05 02:53:26;;;;;;;7.30;6.60;;;6.00;99.90;;;;;;5063013;28;20386;-81
2022/04/05 02:56:14;;;;;;;6.77;6.17;;;6.10;99.90;;;;;;5058945;28;20396;-81
2022/04/05 02:58:58;;;;;;;10.30;8.20;;;6.10;99.90;;;;;;5059399;28;20394;-82
2022/04/05 03:01:44;;;;;;;8.27;7.40;;;5.90;99.90;;;;;;5060108;28;20390;-81
2022/04/05 03:04:28;;;;;;;7.80;7.07;;;5.90;99.90;;;;;;5059459;28;20440;-83
2022/04/05 03:07:14;;;;;;;11.43;6.80;;;6.00;99.90;;;;;;5059324;28;20445;-82
2022/04/05 03:09:58;;;;;;;7.60;6.33;;;5.90;99.90;;;;;;5060875;28;20406;-82
2022/04/05 03:12:43;;;;;;;15.37;7.33;;;6.00;99.90;;;;;;5100193;28;20465;-82
2022/04/05 03:15:27;;;;;;;7.60;6.30;;;5.90;99.90;;;;;;5099752;28;20472;-81
2022/04/05 03:18:12;;;;;;;7.07;6.37;;;6.00;99.90;;;;;;5100060;28;20710;-81
2022/04/05 03:20:56;;;;;;;9.87;7.10;;;6.00;99.90;;;;;;5101238;28;20388;-82
2022/04/05 03:23:41;;;;;;;9.60;7.17;;;6.00;99.90;;;;;;5059911;28;20406;-83
2022/04/05 03:26:28;;;;;;;7.67;5.83;;;6.00;99.90;;;;;;5061594;28;20484;-82
2022/04/05 03:29:13;;;;;;;11.80;6.40;;;5.90;99.90;;;;;;5046872;28;20882;-82
2022/04/05 03:31:58;;;;;;;8.23;6.50;;;6.00;99.90;;;;;;5046283;28;20418;-81
2022/04/05 03:34:42;;;;;;;6.73;6.17;;;6.00;99.90;;;;;;5058536;28;20941;-83
2022/04/05 03:37:26;;;;;;;9.33;6.27;;;5.90;99.90;;;;;;5059208;28;20450;-83
2022/04/05 03:40:12;;;;;;;6.40;5.73;;;5.80;99.90;;;;;;5030633;28;20376;-82
2022/04/05 03:42:56;;;;;;;7.27;6.67;;;5.90;99.90;;;;;;5043846;28;20432;-83
2022/04/05 03:45:41;;;;;;;5.70;5.20;;;6.00;99.90;;;;;;5066397;28;20827;-82
2022/04/05 03:48:28;;;;;;;6.80;6.10;;;5.80;99.90;;;;;;5075114;28;21090;-82
2022/04/05 03:51:12;;;;;;;7.67;6.57;;;5.90;99.90;;;;;;5076652;28;20401;-83
2022/04/05 03:53:57;;;;;;;12.40;6.57;;;6.00;99.90;;;;;;5089172;28;20435;-81
2022/04/05 03:56:42;;;;;;;7.87;6.77;;;6.00;99.90;;;;;;5116818;28;20488;-82
2022/04/05 03:59:27;;;;;;;7.03;5.47;;;5.80;99.90;;;;;;5102286;28;20364;-82
2022/04/05 04:02:14;;;;;;;10.43;6.10;;;5.80;99.90;;;;;;5116879;28;20401;-81
2022/04/05 04:05:00;;;;;;;5.80;4.97;;;5.80;99.90;;;;;;5102375;28;20400;-82
2022/04/05 04:07:48;;;;;;;7.77;6.97;;;5.90;99.90;;;;;;5111564;28;20392;-83
2022/04/05 04:10:34;;;;;;;5.90;5.00;;;6.00;99.90;;;;;;5088111;28;20493;-82
2022/04/05 04:13:18;;;;;;;7.20;6.60;;;6.00;99.90;;;;;;5107794;28;20388;-82
2022/04/05 04:16:04;;;;;;;7.23;5.27;;;6.10;99.90;;;;;;5109779;28;20922;-83
2022/04/05 04:18:48;;;;;;;6.63;5.50;;;6.00;99.90;;;;;;5118901;28;20354;-80
2022/04/05 04:21:32;;;;;;;6.87;6.27;;;6.00;99.90;;;;;;5118607;28;20438;-79
2022/04/05 04:24:17;;;;;;;5.90;5.37;;;6.10;99.90;;;;;;5117848;28;20427;-80
2022/04/05 04:27:02;;;;;;;7.73;5.00;;;6.10;99.90;;;;;;5118195;28;20466;-80
2022/04/05 04:29:49;;;;;;;7.17;4.67;;;6.00;99.90;;;;;;5113405;28;20396;-83
2022/04/05 04:32:34;;;;;;;6.40;5.80;;;5.80;99.90;;;;;;5116473;28;20430;-80
2022/04/05 04:35:19;;;;;;;7.23;5.50;;;6.00;99.90;;;;;;5102426;28;20402;-82
2022/04/05 04:38:04;;;;;;;5.37;4.83;;;6.00;99.90;;;;;;5117228;28;20399;-83
2022/04/05 04:40:50;;;;;;;7.83;5.30;;;6.00;99.90;;;;;;5116282;28;20391;-79
2022/04/05 04:43:36;;;;;;;7.70;6.17;;;6.10;99.90;;;;;;5115660;28;20431;-83
2022/04/05 04:46:20;;;;;;;14.27;7.07;;;6.10;99.90;;;;;;5116762;28;20495;-79
2022/04/05 04:49:05;;;;;;;8.30;6.70;;;6.20;99.90;;;;;;5120321;28;20403;-82
2022/04/05 04:51:50;;;;;;;6.63;5.40;;;6.20;99.90;;;;;;5122518;28;20446;-81
2022/04/05 04:54:35;;;;;;;6.80;5.90;;;6.20;99.90;;;;;;5098572;28;20410;-81
2022/04/05 04:57:19;;;;;;;8.50;4.47;;;6.20;99.90;;;;;;5089870;28;20380;-79
2022/04/05 05:00:05;;;;;;;9.53;5.57;;;6.10;99.90;;;;;;5117047;28;20396;-78
2022/04/05 05:02:50;;;;;;;7.93;6.30;;;6.00;99.90;;;;;;5099027;28;20407;-78
2022/04/05 05:05:35;;;;;;;6.70;5.80;;;6.00;99.90;;;;;;5092817;28;20558;-82
2022/04/05 05:08:19;;;;;;;5.47;4.93;;;6.00;99.90;;;;;;5086280;28;20397;-82
2022/04/05 05:11:03;;;;;;;8.70;7.17;;;6.10;99.90;;;;;;5108974;28;20965;-83
2022/04/05 05:13:49;;;;;;;6.53;5.80;;;6.00;99.90;;;;;;5104897;28;20463;-83
2022/04/05 05:16:35;;;;;;;6.83;6.13;;;6.00;99.90;;;;;;5102456;28;20830;-83
2022/04/05 05:19:20;;;;;;;9.63;5.73;;;5.90;99.90;;;;;;5104913;28;20440;-83
2022/04/05 05:22:06;;;;;;;5.03;4.63;;;6.00;99.90;;;;;;5098810;28;20423;-83
2022/04/05 05:24:50;;;;;;;5.47;4.97;;;6.10;99.90;;;;;;5096517;28;20757;-83
2022/04/05 05:27:35;;;;;;;7.17;5.50;;;6.00;99.90;;;;;;5090883;28;20468;-83
2022/04/05 05:30:19;;;;;;;10.03;7.00;;;6.00;99.90;;;;;;5102882;28;20396;-82
2022/04/05 05:33:04;;;;;;;6.73;5.63;;;6.00;99.90;;;;;;5097942;28;20446;-81
2022/04/05 05:35:48;;;;;;;7.57;4.80;;;6.10;99.90;;;;;;5083064;28;20478;-82
2022/04/05 05:38:33;;;;;;;6.67;5.10;;;6.10;99.90;;;;;;5101512;28;20409;-83
2022/04/05 05:41:17;;;;;;;7.50;5.67;;;5.90;99.90;;;;;;5091308;28;20416;-82
2022/04/05 05:44:02;;;;;;;5.53;5.00;;;5.90;99.90;;;;;;5094451;28;20411;-83
2022/04/05 05:46:47;;;;;;;6.10;5.50;;;6.00;99.90;;;;;;5103952;28;20478;-81
2022/04/05 05:49:33;;;;;;;9.50;5.43;;;6.00;99.90;;;;;;5060683;28;20959;-81
2022/04/05 05:52:17;;;;;;;5.77;5.07;;;5.90;99.90;;;;;;5060891;28;20414;-82
2022/04/05 05:55:02;;;;;;;8.87;6.70;;;6.00;99.90;;;;;;5040887;28;20476;-82
2022/04/05 05:57:48;;;;;;;6.37;5.33;;;6.00;99.90;;;;;;5064547;28;20441;-82
2022/04/05 06:00:32;;;;;;;10.60;6.07;;;6.10;99.90;;;;;;5039071;28;20509;-83
2022/04/05 06:03:18;;;;;;;9.63;5.63;;;6.10;99.90;;;;;;5028218;28;20454;-82
2022/04/05 06:06:02;;;;;;;7.10;6.40;;;6.10;99.90;;;;;;5058369;28;20467;-82
2022/04/05 06:08:47;;;;;;;5.70;5.20;;;6.20;99.90;;;;;;5045199;28;21063;-84
2022/04/05 06:11:31;;;;;;;7.63;6.27;;;5.90;99.90;;;;;;5052946;28;20491;-83
2022/04/05 06:14:15;;;;;;;5.27;4.77;;;5.90;99.90;;;;;;5037935;28;20414;-81
2022/04/05 06:17:00;;;;;;;6.33;5.70;;;6.10;99.90;;;;;;5057714;28;20998;-83
2022/04/05 06:19:45;;;;;;;6.67;5.67;;;6.00;99.90;;;;;;5065748;28;20440;-83
2022/04/05 06:22:30;;;;;;;6.83;5.57;;;6.00;99.90;;;;;;5082463;28;20407;-83
2022/04/05 06:25:17;;;;;;;7.47;5.57;;;6.00;99.90;;;;;;5082632;28;20423;-83
2022/04/05 06:28:06;;;;;;;7.83;7.03;;;6.10;99.90;;;;;;5072850;28;20449;-83
2022/04/05 06:30:50;;;;;;;5.97;5.40;;;6.20;99.90;;;;;;5073942;28;20505;-82
2022/04/05 06:33:35;;;;;;;8.23;5.93;;;6.20;99.90;;;;;;5081764;28;20779;-83
2022/04/05 06:36:20;;;;;;;6.97;5.77;;;6.20;99.90;;;;;;5079070;28;20931;-83
2022/04/05 06:39:06;;;;;;;5.30;4.90;;;6.20;99.90;;;;;;5081281;28;20468;-83
2022/04/05 06:41:52;;;;;;;6.60;6.00;;;6.20;99.90;;;;;;5083800;28;20543;-83
2022/04/05 06:44:36;;;;;;;7.63;6.10;;;6.20;99.90;;;;;;5076705;28;20737;-83
2022/04/05 06:47:21;;;;;;;7.73;5.17;;;6.20;99.90;;;;;;5079115;28;20492;-83
2022/04/05 06:50:09;;;;;;;6.00;5.37;;;6.20;99.90;;;;;;5072693;28;20459;-83
2022/04/05 06:52:57;;;;;;;6.10;5.27;;;6.20;99.90;;;;;;5076273;28;20932;-84
2022/04/05 06:55:48;;;;;;;7.27;6.67;;;6.30;99.90;;;;;;5080448;28;20535;-82
2022/04/05 06:58:33;;;;;;;7.20;4.67;;;6.20;99.90;;;;;;5046340;28;20428;-83
2022/04/05 07:01:18;;;;;;;6.33;5.30;;;6.20;99.90;;;;;;5077859;28;20440;-83
2022/04/05 07:04:03;;;;;;;6.97;6.23;;;6.20;99.90;;;;;;5074083;28;20444;-83
2022/04/05 07:06:48;;;;;;;8.30;4.93;;;6.20;99.90;;;;;;5072171;28;20499;-84
2022/04/05 07:09:33;;;;;;;8.13;5.70;;;6.20;99.90;;;;;;5078994;28;20435;-83
2022/04/05 07:12:18;;;;;;;7.00;5.17;;;6.30;99.90;;;;;;5057707;28;20464;-82
2022/04/05 07:15:03;;;;;;;5.33;4.80;;;6.30;99.90;;;;;;5032812;28;20417;-81
2022/04/05 07:17:48;;;;;;;6.03;5.43;;;6.50;99.90;;;;;;5058986;28;20441;-82
2022/04/05 07:20:37;;;;;;;7.13;5.10;;;6.40;99.90;;;;;;5059877;28;20404;-82
2022/04/05 07:23:21;;;;;;;5.07;4.57;;;6.40;99.90;;;;;;5046577;28;20433;-83
2022/04/05 07:26:07;;;;;;;5.17;4.67;;;6.40;99.90;;;;;;5060487;28;20569;-83
2022/04/05 07:28:51;;;;;;;6.73;6.13;;;6.40;99.90;;;;;;5059403;28;20413;-81
2022/04/05 07:31:36;;;;;;;7.60;6.17;;;6.40;99.90;;;;;;5050934;28;20427;-82
2022/04/05 07:34:21;;;;;;;6.37;5.77;;;6.50;99.90;;;;;;5058549;28;20414;-80
2022/04/05 07:37:05;;;;;;;4.70;3.90;;;6.50;99.90;;;;;;5051087;28;20484;-81
2022/04/05 07:39:50;;;;;;;6.60;5.50;;;6.60;99.90;;;;;;5049039;28;20429;-81
2022/04/05 07:42:34;;;;;;;8.80;5.40;;;6.60;99.90;;;;;;5061733;28;20595;-81
2022/04/05 07:45:19;;;;;;;11.37;5.30;;;6.70;99.90;;;;;;5078437;28;20427;-82
2022/04/05 07:48:04;;;;;;;5.30;4.80;;;6.70;99.90;;;;;;5075011;28;20457;-82
2022/04/05 07:50:51;;;;;;;4.87;4.27;;;6.80;99.90;;;;;;5081189;28;20438;-81
2022/04/05 07:53:36;;;;;;;5.00;4.60;;;6.70;99.90;;;;;;5077437;28;20425;-81
2022/04/05 07:56:20;;;;;;;5.53;5.00;;;6.70;99.90;;;;;;5081686;28;20459;-81
2022/04/05 07:59:05;;;;;;;5.83;5.27;;;6.80;99.90;;;;;;5080116;28;20455;-83
2022/04/05 08:01:50;;;;;;;4.20;3.90;;;6.70;99.90;;;;;;5081443;28;20444;-81
2022/04/05 08:04:34;;;;;;;4.80;4.10;;;6.80;99.90;;;;;;5078612;28;20834;-83
2022/04/05 08:07:19;;;;;;;6.10;4.57;;;6.70;99.90;;;;;;5076858;28;20476;-83
2022/04/05 08:10:06;;;;;;;6.53;5.93;;;6.80;99.90;;;;;;5083248;28;20475;-82
2022/04/05 08:12:50;;;;;;;5.20;3.83;;;6.80;99.90;;;;;;5093686;28;20468;-82
2022/04/05 08:15:56;;;;;;;5.93;4.43;;;6.90;99.90;;;;;;5054810;28;20521;-83
2022/04/05 08:18:40;;;;;;;4.90;4.40;;;7.00;99.90;;;;;;5053458;28;20480;-83
2022/04/05 08:21:25;;;;;;;5.17;4.63;;;6.90;99.90;;;;;;5050525;28;20432;-83
2022/04/05 08:24:10;;;;;;;9.10;4.73;;;7.00;99.90;;;;;;5042248;28;20825;-82
2022/04/05 08:26:54;;;;;;;5.33;4.77;;;7.00;99.90;;;;;;5040822;28;20460;-82
2022/04/05 08:29:41;;;;;;;4.90;4.50;;;7.00;99.90;;;;;;5055820;28;21007;-81
2022/04/05 08:32:26;;;;;;;4.30;4.00;;;7.00;99.90;;;;;;5057061;28;20433;-82
2022/04/05 08:35:14;;;;;;;6.03;3.63;;;7.10;99.90;;;;;;5060271;28;20456;-83
2022/04/05 08:38:01;;;;;;;3.90;3.60;;;7.20;99.90;;;;;;5058136;28;20413;-82
2022/04/05 08:40:46;;;;;;;5.47;5.00;;;7.10;99.90;;;;;;5057503;28;20447;-83
2022/04/05 08:43:32;;;;;;;4.40;4.10;;;7.00;99.90;;;;;;5039641;28;20950;-82
2022/04/05 08:46:20;;;;;;;5.77;4.50;;;7.10;99.90;;;;;;5077823;28;20463;-83
2022/04/05 08:49:06;;;;;;;4.47;4.03;;;7.10;99.90;;;;;;5095910;28;20448;-83
2022/04/05 08:51:51;;;;;;;4.10;3.73;;;7.10;99.90;;;;;;5082839;28;20532;-82
2022/04/05 08:54:35;;;;;;;4.70;4.33;;;7.20;99.90;;;;;;5057184;28;20972;-82
2022/04/05 08:57:20;;;;;;;3.50;3.13;;;7.20;99.90;;;;;;5102079;28;20472;-83
2022/04/05 09:00:08;;;;;;;4.70;3.70;;;7.30;99.90;;;;;;5087676;28;20444;-82
2022/04/05 09:02:56;;;;;;;4.90;4.47;;;7.40;99.90;;;;;;5085493;28;21003;-84
2022/04/05 09:05:43;;;;;;;3.67;3.37;;;7.50;99.90;;;;;;5096258;28;20499;-82
2022/04/05 09:08:28;;;;;;;4.23;3.63;;;7.60;99.90;;;;;;5100651;28;20508;-82
2022/04/05 09:11:14;;;;;;;3.10;2.90;;;7.50;99.90;;;;;;5087118;28;20557;-83
2022/04/05 09:14:00;;;;;;;3.83;3.43;;;7.20;99.90;;;;;;5103400;28;20948;-83
2022/04/05 09:16:45;;;;;;;3.10;2.80;;;7.40;99.90;;;;;;5096575;28;20404;-82
2022/04/05 09:19:38;;;;;;;4.77;4.33;;;7.20;99.90;;;;;;5095692;28;20432;-82
2022/04/05 09:22:38;;;;;;;4.93;4.43;;;7.20;99.90;;;;;;5098787;28;20427;-82
2022/04/05 09:25:23;;;;;;;4.23;3.93;;;7.30;99.90;;;;;;5094753;28;20432;-83
2022/04/05 09:28:09;;;;;;;3.60;3.30;;;7.40;99.90;;;;;;5091350;28;20433;-84
2022/04/05 09:31:03;;;;;;;4.57;4.17;;;7.40;99.90;;;;;;5088457;28;20418;-83
2022/04/05 09:34:04;;;;;;;4.23;3.93;;;7.40;99.90;;;;;;5093534;28;20501;-82
2022/04/05 09:36:51;;;;;;;4.87;4.00;;;7.40;99.90;;;;;;5102767;28;20513;-79
2022/04/05 09:39:35;;;;;;;4.50;3.80;;;7.60;99.90;;;;;;5113709;28;20429;-81
2022/04/05 09:42:19;;;;;;;3.73;3.20;;;7.70;99.90;;;;;;5093206;28;20414;-80
2022/04/05 09:45:04;;;;;;;3.70;3.40;;;7.80;99.90;;;;;;5108959;28;20858;-80
2022/04/05 09:48:04;;;;;;;4.10;3.80;;;7.70;99.90;;;;;;5115899;28;20451;-80
2022/04/05 09:51:00;;;;;;;4.03;3.73;;;7.70;99.90;;;;;;5089638;28;20823;-83
2022/04/05 09:53:50;;;;;;;5.13;3.40;;;7.60;99.90;;;;;;5104371;28;20420;-83
2022/04/05 09:56:39;;;;;;;6.60;3.73;;;7.80;99.90;;;;;;5101854;28;20866;-83
2022/04/05 09:59:24;;;;;;;4.47;3.70;;;8.00;99.90;;;;;;5088173;28;20448;-82
2022/04/05 10:02:15;;;;;;;3.37;3.10;;;8.00;99.90;;;;;;5101279;28;20493;-82
2022/04/05 10:05:06;;;;;;;3.60;3.40;;;8.10;99.90;;;;;;5088806;28;20423;-81
2022/04/05 10:07:52;;;;;;;4.07;3.20;;;8.10;99.90;;;;;;5098681;28;20429;-83
2022/04/05 10:10:36;;;;;;;4.07;3.73;;;8.10;99.90;;;;;;5099769;28;20521;-82
2022/04/05 10:13:21;;;;;;;4.23;3.90;;;8.40;99.90;;;;;;5100334;28;20423;-84
2022/04/05 10:16:07;;;;;;;2.73;2.53;;;8.30;99.90;;;;;;5105231;28;20423;-82
2022/04/05 10:18:57;;;;;;;3.93;3.60;;;8.20;99.90;;;;;;5101873;28;20408;-81
2022/04/05 10:21:42;;;;;;;5.30;4.10;;;8.40;99.90;;;;;;5100073;28;20408;-81
2022/04/05 10:24:30;;;;;;;3.93;3.10;;;8.30;99.90;;;;;;5059498;28;20880;-80
2022/04/05 10:27:16;;;;;;;2.80;2.53;;;8.30;99.90;;;;;;5082123;28;20467;-81
2022/04/05 10:30:08;;;;;;;3.83;3.40;;;8.50;99.90;;;;;;5096210;28;20524;-81
2022/04/05 10:33:03;;;;;;;4.10;3.80;;;8.30;99.90;;;;;;5096592;28;20906;-80
2022/04/05 10:35:53;;;;;;;4.83;4.27;;;8.60;99.90;;;;;;5096375;28;20432;-81
2022/04/05 10:38:38;;;;;;;2.80;2.60;;;8.70;99.90;;;;;;5101042;28;20419;-81
2022/04/05 10:41:24;;;;;;;4.53;2.93;;;8.80;99.90;;;;;;5100596;28;20427;-80
2022/04/05 10:44:22;;;;;;;3.33;2.93;;;8.90;99.90;;;;;;5097949;28;20451;-79
2022/04/05 10:47:08;;;;;;;3.73;3.33;;;8.60;99.90;;;;;;5101647;28;20516;-81
2022/04/05 10:49:54;;;;;;;4.50;3.67;;;8.60;99.90;;;;;;5084251;28;20529;-80
2022/04/05 10:52:38;;;;;;;4.63;3.93;;;8.80;99.90;;;;;;5068373;28;20435;-81
2022/04/05 10:55:23;;;;;;;4.10;3.70;;;8.70;99.90;;;;;;5082879;28;20458;-81
2022/04/05 10:58:09;;;;;;;3.90;3.50;;;8.90;99.90;;;;;;5103354;28;20470;-81
2022/04/05 11:01:13;;;;;;;4.63;4.10;;;8.90;99.90;;;;;;5100850;28;20431;-81
2022/04/05 11:04:28;;;;;;;3.63;3.20;;;8.70;99.90;;;;;;5101931;28;20489;-81
2022/04/05 11:07:13;;;;;;;4.50;3.60;;;8.50;99.90;;;;;;5084273;28;20572;-81
2022/04/05 11:10:00;;;;;;;3.80;3.10;;;8.70;99.90;;;;;;5099508;28;20764;-82
2022/04/05 11:12:45;;;;;;;3.57;3.27;;;8.90;99.90;;;;;;5112400;28;20531;-80
2022/04/05 11:15:52;;;;;;;4.83;4.10;;;9.00;99.90;;;;;;5095089;28;20460;-80
2022/04/05 11:18:38;;;;;;;4.67;3.67;;;9.00;99.90;;;;;;5078229;28;20488;-82
2022/04/05 11:21:25;;;;;;;7.40;4.97;;;9.00;99.90;;;;;;5099766;28;20414;-80
2022/04/05 11:24:10;;;;;;;4.90;3.50;;;9.00;99.90;;;;;;5104583;28;20435;-81
2022/04/05 11:27:26;;;;;;;4.80;4.23;;;9.10;99.90;;;;;;5088466;28;20456;-81
2022/04/05 11:30:37;;;;;;;6.00;3.00;;;9.00;99.90;;;;;;5099138;28;20470;-81
2022/04/05 11:33:36;;;;;;;4.00;3.70;;;9.00;99.90;;;;;;5086042;28;20456;-81
2022/04/05 11:36:25;;;;;;;4.07;3.60;;;8.60;99.90;;;;;;5097323;28;20499;-82
2022/04/05 11:39:14;;;;;;;3.43;3.13;;;8.60;99.90;;;;;;5093904;28;20498;-80
2022/04/05 11:42:00;;;;;;;4.43;3.90;;;8.70;99.90;;;;;;5112041;28;20459;-82
2022/04/05 11:44:49;;;;;;;4.77;3.83;;;8.80;99.90;;;;;;5100252;28;20432;-81
2022/04/05 11:47:34;;;;;;;9.30;4.20;;;8.80;99.90;;;;;;5091911;28;20466;-81
2022/04/05 11:50:19;;;;;;;5.03;4.20;;;8.80;99.90;;;;;;5094608;28;20430;-80
2022/04/05 11:53:21;;;;;;;3.80;3.50;;;9.00;99.90;;;;;;5103140;28;20499;-80
2022/04/05 11:56:09;;;;;;;5.40;4.37;;;9.20;99.90;;;;;;5103357;28;20474;-81
2022/04/05 11:58:56;;;;;;;4.40;4.00;;;9.10;99.90;;;;;;5094056;28;20475;-81
2022/04/05 12:01:42;;;;;;;7.80;4.63;;;9.10;99.90;;;;;;5101707;28;20454;-81
2022/04/05 12:04:28;;;;;;;5.03;4.43;;;9.20;99.90;;;;;;5110600;28;20483;-80
2022/04/05 12:07:12;;;;;;;6.80;4.73;;;9.30;99.90;;;;;;5080806;28;20494;-81
2022/04/05 12:09:59;;;;;;;4.93;3.70;;;9.30;99.90;;;;;;5054372;28;20473;-81
2022/04/05 12:12:45;;;;;;;4.20;3.90;;;9.40;99.90;;;;;;5056856;28;20502;-81
2022/04/05 12:15:30;;;;;;;5.33;4.57;;;9.50;99.90;;;;;;5084686;28;20444;-81
2022/04/05 12:18:20;;;;;;;4.80;4.23;;;9.40;99.90;;;;;;5051194;28;20482;-81
2022/04/05 12:21:11;;;;;;;5.10;3.90;;;9.60;99.90;;;;;;5079706;28;20498;-81
2022/04/05 12:23:56;;;;;;;4.00;3.60;;;9.30;99.90;;;;;;5083026;28;20425;-81
2022/04/05 12:26:41;;;;;;;4.03;3.70;;;9.30;99.90;;;;;;5067520;28;20484;-81
2022/04/05 12:29:27;;;;;;;4.50;4.10;;;9.60;99.90;;;;;;5081699;28;20413;-81
2022/04/05 12:32:14;;;;;;;4.80;4.40;;;9.70;99.90;;;;;;5068460;28;20488;-81
2022/04/05 12:34:58;;;;;;;4.50;4.10;;;9.70;99.90;;;;;;5088175;28;20459;-81
2022/04/05 12:37:44;;;;;;;3.73;3.43;;;9.70;99.90;;;;;;5083582;28;20554;-81
2022/04/05 12:40:39;;;;;;;7.60;4.47;;;9.80;99.90;;;;;;5099218;28;20447;-81
2022/04/05 12:43:24;;;;;;;5.20;4.43;;;9.90;99.90;;;;;;5100050;28;20423;-81
2022/04/05 12:46:11;;;;;;;4.30;3.90;;;9.80;99.90;;;;;;5093846;28;20500;-80
2022/04/05 12:49:16;;;;;;;4.90;4.50;;;10.30;99.90;;;;;;5106893;28;20434;-80
2022/04/05 12:52:13;;;;;;;4.43;4.03;;;10.20;99.90;;;;;;5101403;28;20444;-81
2022/04/05 12:55:04;;;;;;;4.90;4.50;;;10.20;99.90;;;;;;5101789;28;20431;-81
2022/04/05 12:57:51;;;;;;;5.43;4.50;;;9.70;99.90;;;;;;5102271;28;20409;-80
2022/04/05 13:00:44;;;;;;;5.27;4.00;;;10.10;99.90;;;;;;5101928;28;20433;-81
2022/04/05 13:03:32;;;;;;;6.20;4.67;;;10.10;99.90;;;;;;5099021;28;20454;-81
2022/04/05 13:06:30;;;;;;;5.10;4.60;;;10.30;99.90;;;;;;5099858;28;20984;-80
2022/04/05 13:09:17;;;;;;;5.47;5.00;;;10.70;99.90;;;;;;5094554;28;20455;-79
2022/04/05 13:12:18;;;;;;;6.47;4.97;;;10.60;99.90;;;;;;5089037;28;20505;-80
2022/04/05 13:15:12;;;;;;;6.20;5.60;;;10.30;99.90;;;;;;5109931;28;20407;-81
2022/04/05 13:18:05;;;;;;;6.10;5.50;;;10.60;99.90;;;;;;5112142;28;20441;-80
2022/04/05 13:20:59;;;;;;;5.27;4.70;;;10.50;99.90;;;;;;5106133;28;20481;-80
2022/04/05 13:24:03;;;;;;;6.17;4.50;;;10.50;99.90;;;;;;5075703;28;20499;-79
2022/04/05 13:26:51;;;;;;;4.70;4.30;;;10.30;99.90;;;;;;5093078;28;20458;-80
2022/04/05 13:29:41;;;;;;;5.20;4.73;;;10.30;99.90;;;;;;5060042;28;20536;-80
2022/04/05 13:32:26;;;;;;;5.40;4.77;;;10.40;99.90;;;;;;5100369;27;20460;-80
2022/04/05 13:35:10;;;;;;;5.53;4.87;;;10.30;99.90;;;;;;5110561;28;20452;-80
2022/04/05 13:37:55;;;;;;;5.70;5.20;;;9.80;99.90;;;;;;5096776;28;20427;-80
2022/04/05 13:40:43;;;;;;;4.83;4.43;;;9.80;99.90;;;;;;5086178;28;20489;-79
2022/04/05 13:43:28;;;;;;;5.90;5.20;;;9.60;99.90;;;;;;5101793;28;20504;-80
2022/04/05 13:46:13;;;;;;;4.93;4.43;;;9.70;99.90;;;;;;5095689;28;20488;-80
2022/04/05 13:49:03;;;;;;;6.20;5.17;;;9.80;99.90;;;;;;5115587;28;20455;-80
2022/04/05 13:51:51;;;;;;;5.37;4.87;;;9.70;99.90;;;;;;5113100;28;20463;-80
2022/04/05 13:54:36;;;;;;;6.00;5.50;;;9.60;99.90;;;;;;5116226;28;20412;-79
2022/04/05 13:57:21;;;;;;;5.80;4.70;;;9.40;99.90;;;;;;5098336;28;20498;-80
2022/04/05 14:00:07;;;;;;;5.37;4.87;;;9.60;99.90;;;;;;5108466;28;20432;-80
2022/04/05 14:02:54;;;;;;;6.17;5.57;;;9.60;99.90;;;;;;5080154;28;20471;-81
2022/04/05 14:05:38;;;;;;;6.37;4.73;;;9.70;99.90;;;;;;5092539;28;20433;-80
2022/04/05 14:08:24;;;;;;;6.27;4.53;;;9.80;99.90;;;;;;5098958;28;20432;-81
2022/04/05 14:11:10;;;;;;;10.30;7.40;;;9.80;99.90;;;;;;5099261;28;20483;-80
2022/04/05 14:13:56;;;;;;;5.40;4.93;;;9.90;99.90;;;;;;5098194;28;20427;-81
2022/04/05 14:16:40;;;;;;;6.00;5.40;;;9.90;99.90;;;;;;5102592;28;20471;-79
2022/04/05 14:19:26;;;;;;;5.57;5.10;;;10.00;99.90;;;;;;5109622;28;20656;-79
2022/04/05 14:22:12;;;;;;;5.43;4.93;;;10.10;99.90;;;;;;5098863;28;20475;-81
2022/04/05 14:24:56;;;;;;;5.80;5.27;;;10.10;99.90;;;;;;5103090;28;20432;-79
2022/04/05 14:27:41;;;;;;;5.40;4.93;;;10.20;99.90;;;;;;5102085;28;20521;-82
2022/04/05 14:30:26;;;;;;;6.37;5.20;;;10.20;99.90;;;;;;5069079;28;20467;-81
2022/04/05 14:33:10;;;;;;;5.23;4.70;;;10.20;99.90;;;;;;5083099;28;20548;-80
2022/04/05 14:35:55;;;;;;;5.17;4.80;;;10.20;99.90;;;;;;5075484;28;20420;-80
2022/04/05 14:38:40;;;;;;;6.27;5.70;;;10.20;99.90;;;;;;5076029;28;20503;-80